createdAt,value
2019-03-16T00:00:40.495Z,29.20
2019-03-16T00:03:32.971Z,29.20
2019-03-16T00:06:24.992Z,29.20
2019-03-16T00:09:17.357Z,29.20
2019-03-16T00:12:09.392Z,29.20
2019-03-16T00:15:01.765Z,29.20
2019-03-16T00:17:54.209Z,29.20
2019-03-16T00:20:46.449Z,29.20
2019-03-16T00:23:38.756Z,29.20
2019-03-16T00:26:30.928Z,29.20
2019-03-16T00:29:23.388Z,29.20
2019-03-16T00:32:15.539Z,29.20
2019-03-16T00:35:07.890Z,29.20
2019-03-16T00:37:59.889Z,29.20
2019-03-16T00:40:52.329Z,29.20
2019-03-16T00:43:44.870Z,29.20
2019-03-16T00:46:37.074Z,29.20
2019-03-16T00:49:29.753Z,29.20
2019-03-16T00:52:21.874Z,29.20
2019-03-16T00:55:14.246Z,29.20
2019-03-16T00:58:06.903Z,29.20
2019-03-16T01:00:59.026Z,29.20
2019-03-16T01:03:51.210Z,29.20
2019-03-16T01:06:43.594Z,29.10
2019-03-16T01:09:36.305Z,29.10
2019-03-16T01:12:29.002Z,29.10
2019-03-16T01:15:21.521Z,29.10
2019-03-16T01:18:13.995Z,29.10
2019-03-16T01:21:06.592Z,29.10
2019-03-16T01:23:59.401Z,29.10
2019-03-16T01:26:51.376Z,29.10
2019-03-16T01:29:44.169Z,29.10
2019-03-16T01:32:40.903Z,29.10
2019-03-16T01:35:32.353Z,29.10
2019-03-16T01:38:24.812Z,29.10
2019-03-16T01:41:17.739Z,29.10
2019-03-16T01:44:10.283Z,29.10
2019-03-16T01:47:03.146Z,29.10
2019-03-16T01:49:56.599Z,29.10
2019-03-16T01:52:49.699Z,29.10
2019-03-16T01:55:42.248Z,29.10
2019-03-16T01:58:34.756Z,29.10
2019-03-16T02:01:27.100Z,29.10
2019-03-16T02:04:19.679Z,29.10
2019-03-16T02:07:12.034Z,29.10
2019-03-16T02:10:04.624Z,29.10
2019-03-16T02:12:57.440Z,29.10
2019-03-16T02:15:50.248Z,29.10
2019-03-16T02:18:42.112Z,29.10
2019-03-16T02:21:35.138Z,29.10
2019-03-16T02:24:27.813Z,29.10
2019-03-16T02:27:20.294Z,29.10
2019-03-16T02:30:12.830Z,29.10
2019-03-16T02:33:13.264Z,29.10
2019-03-16T02:35:59.575Z,29.10
2019-03-16T02:38:52.053Z,29.10
2019-03-16T02:41:44.636Z,29.10
2019-03-16T02:44:38.173Z,29.10
2019-03-16T02:47:30.464Z,29.10
2019-03-16T02:50:22.821Z,29.10
2019-03-16T02:53:15.234Z,29.10
2019-03-16T02:56:07.424Z,29.10
2019-03-16T02:58:59.922Z,29.00
2019-03-16T03:01:52.060Z,29.00
2019-03-16T03:04:46.288Z,29.10
2019-03-16T03:07:38.041Z,29.10
2019-03-16T03:10:30.393Z,29.10
2019-03-16T03:13:22.968Z,29.00
2019-03-16T03:16:15.087Z,29.10
2019-03-16T03:19:07.951Z,29.00
2019-03-16T03:22:00.412Z,29.00
2019-03-16T03:24:52.924Z,29.00
2019-03-16T03:27:45.689Z,29.00
2019-03-16T03:30:38.165Z,29.00
2019-03-16T03:33:57.614Z,29.00
2019-03-16T03:36:26.097Z,29.00
2019-03-16T03:43:42.948Z,29.00
2019-03-16T03:46:35.720Z,29.00
2019-03-16T03:49:28.222Z,29.00
2019-03-16T03:52:21.133Z,29.10
2019-03-16T03:55:13.974Z,29.00
2019-03-16T03:58:06.635Z,29.00
2019-03-16T04:00:59.002Z,29.00
2019-03-16T04:03:51.849Z,29.00
2019-03-16T04:06:44.521Z,29.00
2019-03-16T04:09:36.909Z,29.00
2019-03-16T04:12:29.131Z,29.00
2019-03-16T04:15:22.217Z,29.00
2019-03-16T04:18:18.533Z,29.00
2019-03-16T04:21:11.768Z,29.00
2019-03-16T04:24:04.080Z,29.00
2019-03-16T04:26:56.723Z,29.00
2019-03-16T04:29:49.329Z,29.10
2019-03-16T04:32:44.631Z,29.20
2019-03-16T04:35:37.943Z,29.20
2019-03-16T04:38:31.921Z,28.80
2019-03-16T04:41:24.737Z,28.60
2019-03-16T04:44:20.410Z,28.60
2019-03-16T04:47:13.149Z,28.50
2019-03-16T04:50:07.014Z,28.50
2019-03-16T04:52:59.090Z,28.50
2019-03-16T04:55:53.865Z,28.40
2019-03-16T04:58:46.521Z,28.50
2019-03-16T05:01:38.732Z,28.50
2019-03-16T05:04:41.986Z,28.50
2019-03-16T05:07:25.850Z,28.40
2019-03-16T05:10:19.069Z,28.40
2019-03-16T05:13:13.811Z,28.20
2019-03-16T05:16:07.341Z,28.20
2019-03-16T05:19:02.152Z,28.10
2019-03-16T05:21:54.949Z,28.00
2019-03-16T05:24:47.771Z,28.00
2019-03-16T05:27:41.281Z,28.00
2019-03-16T05:30:34.093Z,27.90
2019-03-16T05:33:31.191Z,27.90
2019-03-16T05:36:30.877Z,27.90
2019-03-16T05:39:41.644Z,27.90
2019-03-16T05:42:41.188Z,27.80
2019-03-16T05:46:13.178Z,27.90
2019-03-16T05:49:22.619Z,27.80
2019-03-16T05:52:29.404Z,28.00
2019-03-16T05:55:56.759Z,27.90
2019-03-16T05:59:00.256Z,27.90
2019-03-16T06:01:53.299Z,27.90
2019-03-16T06:04:53.306Z,27.90
2019-03-16T06:08:09.505Z,27.80
2019-03-16T06:11:14.892Z,27.90
2019-03-16T06:14:16.740Z,27.90
2019-03-16T06:17:13.057Z,27.90
2019-03-16T06:20:12.489Z,28.00
2019-03-16T06:23:06.290Z,27.90
2019-03-16T06:25:58.788Z,27.90
2019-03-16T06:28:52.365Z,28.00
2019-03-16T06:31:45.229Z,28.30
2019-03-16T06:34:41.525Z,28.50
2019-03-16T06:37:34.349Z,28.60
2019-03-16T06:40:27.400Z,28.70
2019-03-16T06:43:20.003Z,28.70
2019-03-16T06:46:12.914Z,28.70
2019-03-16T06:49:05.578Z,28.70
2019-03-16T06:51:58.229Z,28.70
2019-03-16T06:54:51.004Z,28.70
2019-03-16T06:57:47.214Z,28.80
2019-03-16T07:00:41.138Z,28.80
2019-03-16T07:03:33.832Z,28.80
2019-03-16T07:06:31.898Z,28.80
2019-03-16T07:09:28.663Z,28.80
2019-03-16T07:12:23.829Z,28.80
2019-03-16T07:15:19.099Z,28.80
2019-03-16T07:18:15.945Z,28.80
2019-03-16T07:21:10.797Z,28.80
2019-03-16T07:24:11.634Z,28.70
2019-03-16T07:27:33.185Z,28.70
2019-03-16T07:30:46.544Z,28.70
2019-03-16T07:33:47.342Z,28.70
2019-03-16T07:36:50.982Z,28.60
2019-03-16T07:39:45.620Z,28.60
2019-03-16T07:42:39.207Z,28.60
2019-03-16T07:45:33.027Z,28.60
2019-03-16T07:48:27.757Z,28.60
2019-03-16T07:51:22.182Z,28.60
2019-03-16T07:54:16.732Z,28.70
2019-03-16T07:57:09.091Z,28.60
2019-03-16T08:00:02.167Z,28.70
2019-03-16T08:02:55.968Z,28.70
2019-03-16T08:05:49.603Z,28.40
2019-03-16T08:08:52.746Z,28.20
2019-03-16T08:11:47.805Z,28.00
2019-03-16T08:14:48.918Z,27.90
2019-03-16T08:17:45.389Z,28.00
2019-03-16T08:20:38.556Z,27.90
2019-03-16T08:23:31.530Z,27.80
2019-03-16T08:26:24.839Z,27.90
2019-03-16T08:29:17.409Z,27.90
2019-03-16T08:32:11.123Z,27.90
2019-03-16T08:35:06.410Z,27.90
2019-03-16T08:37:59.738Z,27.90
2019-03-16T08:40:53.944Z,27.90
2019-03-16T08:43:46.135Z,27.90
2019-03-16T08:46:38.445Z,27.90
2019-03-16T08:49:31.284Z,27.80
2019-03-16T08:52:23.982Z,27.90
2019-03-16T08:55:16.494Z,27.90
2019-03-16T08:58:10.157Z,27.80
2019-03-16T09:01:02.712Z,27.90
2019-03-16T09:04:09.963Z,27.90
2019-03-16T09:07:04.992Z,27.80
2019-03-16T09:09:57.730Z,27.90
2019-03-16T09:12:55.113Z,27.80
2019-03-16T09:15:46.771Z,27.70
2019-03-16T09:18:39.847Z,27.80
2019-03-16T09:21:36.305Z,27.80
2019-03-16T09:24:40.401Z,27.80
2019-03-16T09:27:32.122Z,27.90
2019-03-16T09:30:24.692Z,27.90
2019-03-16T09:33:17.841Z,27.90
2019-03-16T09:36:10.322Z,27.80
2019-03-16T09:39:03.097Z,27.90
2019-03-16T09:41:55.984Z,27.90
2019-03-16T09:44:49.244Z,27.80
2019-03-16T09:47:42.258Z,27.90
2019-03-16T09:50:35.735Z,27.80
2019-03-16T09:53:28.221Z,27.70
2019-03-16T09:56:21.530Z,27.80
2019-03-16T09:59:16.780Z,27.70
2019-03-16T10:02:13.146Z,27.70
2019-03-16T10:05:05.857Z,27.80
2019-03-16T10:08:00.172Z,27.80
2019-03-16T10:10:53.152Z,27.70
2019-03-16T10:13:46.820Z,27.80
2019-03-16T10:16:46.164Z,27.70
2019-03-16T10:19:33.217Z,27.60
2019-03-16T10:22:26.115Z,27.80
2019-03-16T10:25:19.282Z,27.70
2019-03-16T10:28:12.529Z,27.80
2019-03-16T10:31:05.295Z,27.90
2019-03-16T10:33:58.554Z,27.90
2019-03-16T10:36:52.743Z,27.90
2019-03-16T10:39:57.611Z,27.90
2019-03-16T10:43:21.677Z,27.90
2019-03-16T10:46:15.650Z,27.90
2019-03-16T10:49:09.741Z,27.90
2019-03-16T10:52:04.629Z,27.90
2019-03-16T10:54:58.277Z,27.80
2019-03-16T10:57:58.837Z,27.80
2019-03-16T11:00:52.394Z,27.90
2019-03-16T11:03:45.542Z,27.80
2019-03-16T11:06:38.701Z,27.80
2019-03-16T11:09:31.447Z,27.80
2019-03-16T11:12:24.379Z,27.80
2019-03-16T11:15:17.870Z,27.80
2019-03-16T11:18:11.246Z,27.80
2019-03-16T11:21:04.626Z,27.70
2019-03-16T11:24:02.989Z,27.70
2019-03-16T11:27:01.199Z,27.80
2019-03-16T11:29:57.846Z,27.70
2019-03-16T11:32:52.302Z,27.70
2019-03-16T11:35:45.104Z,27.80
2019-03-16T11:39:00.563Z,27.80
2019-03-16T11:41:50.270Z,27.70
2019-03-16T11:44:45.594Z,27.60
2019-03-16T11:47:39.386Z,27.60
2019-03-16T11:50:41.803Z,27.70
2019-03-16T11:53:48.861Z,27.80
2019-03-16T11:56:42.917Z,27.60
2019-03-16T11:59:36.600Z,27.70
2019-03-16T12:02:29.824Z,27.80
2019-03-16T12:05:22.851Z,27.70
2019-03-16T12:08:15.983Z,27.60
2019-03-16T12:11:08.774Z,27.70
2019-03-16T12:14:01.897Z,27.70
2019-03-16T12:16:55.084Z,27.70
2019-03-16T12:19:48.922Z,27.80
2019-03-16T12:22:49.046Z,27.70
2019-03-16T12:25:43.827Z,27.70
2019-03-16T12:28:36.387Z,27.70
2019-03-16T12:31:28.669Z,27.70
2019-03-16T12:34:21.182Z,27.70
2019-03-16T12:37:13.405Z,27.70
2019-03-16T12:40:08.495Z,27.70
2019-03-16T12:43:07.999Z,27.60
2019-03-16T12:46:06.222Z,27.60
2019-03-16T12:49:02.265Z,27.70
2019-03-16T12:51:58.707Z,27.50
2019-03-16T12:55:00.778Z,27.60
2019-03-16T12:57:57.787Z,27.60
2019-03-16T13:00:51.023Z,27.50
2019-03-16T13:03:44.541Z,27.50
2019-03-16T13:06:38.095Z,27.50
2019-03-16T13:09:38.381Z,27.50
2019-03-16T13:12:39.192Z,27.40
2019-03-16T13:15:31.250Z,27.50
2019-03-16T13:18:24.507Z,27.50
2019-03-16T13:21:16.814Z,27.50
2019-03-16T13:24:09.763Z,27.50
2019-03-16T13:27:02.640Z,27.50
2019-03-16T13:29:59.338Z,27.40
2019-03-16T13:32:51.799Z,27.50
2019-03-16T13:35:44.325Z,27.40
2019-03-16T13:38:37.491Z,27.60
2019-03-16T13:41:30.347Z,27.70
2019-03-16T13:44:23.435Z,27.80
2019-03-16T13:47:15.946Z,27.80
2019-03-16T13:50:09.508Z,27.80
2019-03-16T13:53:03.285Z,27.90
2019-03-16T13:55:56.107Z,28.00
2019-03-16T13:58:48.725Z,28.10
2019-03-16T14:01:41.451Z,28.20
2019-03-16T14:04:34.047Z,28.20
2019-03-16T14:07:26.615Z,28.20
2019-03-16T14:10:20.303Z,28.30
2019-03-16T14:13:23.299Z,28.30
2019-03-16T14:16:24.133Z,28.30
2019-03-16T14:19:24.601Z,28.30
2019-03-16T14:22:23.015Z,28.30
2019-03-16T14:25:20.067Z,28.30
2019-03-16T14:28:18.633Z,28.30
2019-03-16T14:31:16.402Z,28.40
2019-03-16T14:34:14.592Z,28.40
2019-03-16T14:37:15.850Z,28.40
2019-03-16T14:40:15.487Z,28.40
2019-03-16T14:43:26.700Z,28.40
2019-03-16T14:46:22.777Z,28.40
2019-03-16T14:49:16.804Z,28.40
2019-03-16T14:52:09.554Z,28.40
2019-03-16T14:55:02.406Z,28.40
2019-03-16T14:57:54.848Z,28.40
2019-03-16T15:00:48.521Z,28.40
2019-03-16T15:03:41.303Z,28.40
2019-03-16T15:06:34.094Z,28.40
2019-03-16T15:09:29.237Z,28.50
2019-03-16T15:12:23.057Z,28.50
2019-03-16T15:15:17.060Z,28.50
2019-03-16T15:18:10.221Z,28.50
2019-03-16T15:21:04.949Z,28.50
2019-03-16T15:23:58.551Z,28.50
2019-03-16T15:26:51.524Z,28.50
2019-03-16T15:29:44.321Z,28.50
2019-03-16T15:32:37.943Z,28.50
2019-03-16T15:35:31.010Z,28.50
2019-03-16T15:38:23.447Z,28.50
2019-03-16T15:41:16.607Z,28.50
2019-03-16T15:44:09.122Z,28.50
2019-03-16T15:47:02.128Z,28.50
2019-03-16T15:49:58.522Z,28.50
2019-03-16T15:52:51.777Z,28.50
2019-03-16T15:55:44.688Z,28.50
2019-03-16T15:58:37.741Z,28.50
2019-03-16T16:01:30.796Z,28.60
2019-03-16T16:04:23.403Z,28.50
2019-03-16T16:07:16.605Z,28.60
2019-03-16T16:10:10.456Z,28.60
2019-03-16T16:13:03.563Z,28.60
2019-03-16T16:15:56.667Z,28.60
2019-03-16T16:18:48.921Z,28.60
2019-03-16T16:21:41.539Z,28.60
2019-03-16T16:24:34.084Z,28.60
2019-03-16T16:27:27.638Z,28.60
2019-03-16T16:30:20.807Z,28.60
2019-03-16T16:33:13.955Z,28.60
2019-03-16T16:36:08.629Z,28.60
2019-03-16T16:39:01.595Z,28.60
2019-03-16T16:41:56.464Z,28.60
2019-03-16T16:44:50.490Z,28.60
2019-03-16T16:47:43.371Z,28.60
2019-03-16T16:50:37.051Z,28.60
2019-03-16T16:53:33.064Z,28.60
2019-03-16T16:56:26.747Z,28.60
2019-03-16T16:59:19.400Z,28.60
2019-03-16T17:02:12.533Z,28.60
2019-03-16T17:05:05.142Z,28.60
2019-03-16T17:07:57.994Z,28.60
2019-03-16T17:10:51.899Z,28.60
2019-03-16T17:13:44.479Z,28.60
2019-03-16T17:16:36.813Z,28.60
2019-03-16T17:19:29.156Z,28.60
2019-03-16T17:22:22.681Z,28.60
2019-03-16T17:25:15.172Z,28.60
2019-03-16T17:28:07.657Z,28.60
2019-03-16T17:31:01.370Z,28.60
2019-03-16T17:33:54.940Z,28.60
2019-03-16T17:36:47.225Z,28.60
2019-03-16T17:39:41.475Z,28.60
2019-03-16T17:42:33.834Z,28.60
2019-03-16T17:45:35.190Z,28.60
2019-03-16T17:48:29.692Z,28.60
2019-03-16T17:51:20.883Z,28.60
2019-03-16T17:54:15.039Z,28.60
2019-03-16T17:57:08.910Z,28.60
2019-03-16T18:00:01.268Z,28.60
2019-03-16T18:02:53.823Z,28.60
2019-03-16T18:05:46.486Z,28.70
2019-03-16T18:08:39.047Z,28.70
2019-03-16T18:11:31.752Z,28.70
2019-03-16T18:14:23.580Z,28.70
2019-03-16T18:17:16.070Z,28.70
2019-03-16T18:20:08.435Z,28.70
2019-03-16T18:23:01.078Z,28.70
2019-03-16T18:25:55.490Z,28.70
2019-03-16T18:28:48.025Z,28.70
2019-03-16T18:31:41.635Z,28.70
2019-03-16T18:34:34.204Z,28.70
2019-03-16T18:37:27.146Z,28.70
2019-03-16T18:40:20.692Z,28.70
2019-03-16T18:43:14.581Z,28.70
2019-03-16T18:46:07.618Z,28.70
2019-03-16T18:49:01.366Z,28.70
2019-03-16T18:51:55.249Z,28.70
2019-03-16T18:54:47.919Z,28.70
2019-03-16T18:57:40.969Z,28.60
2019-03-16T19:00:33.391Z,28.70
2019-03-16T19:03:26.647Z,28.70
2019-03-16T19:06:19.412Z,28.70
2019-03-16T19:09:12.502Z,28.70
2019-03-16T19:12:05.326Z,28.70
2019-03-16T19:15:01.013Z,28.70
2019-03-16T19:17:58.999Z,28.70
2019-03-16T19:20:47.417Z,28.70
2019-03-16T19:23:40.059Z,28.70
2019-03-16T19:26:32.542Z,28.70
2019-03-16T19:29:24.754Z,28.70
2019-03-16T19:32:17.336Z,28.70
2019-03-16T19:35:09.581Z,28.70
2019-03-16T19:38:02.386Z,28.70
2019-03-16T19:40:54.722Z,28.70
2019-03-16T19:43:50.148Z,28.70
2019-03-16T19:46:41.191Z,28.70
2019-03-16T19:49:34.154Z,28.70
2019-03-16T19:52:26.773Z,28.70
2019-03-16T19:55:18.842Z,28.70
2019-03-16T19:58:11.841Z,28.70
2019-03-16T20:01:04.371Z,28.70
2019-03-16T20:03:56.743Z,28.70
2019-03-16T20:06:49.708Z,28.70
2019-03-16T20:09:42.056Z,28.70
2019-03-16T20:12:35.478Z,28.70
2019-03-16T20:15:28.335Z,28.70
2019-03-16T20:18:21.260Z,28.70
2019-03-16T20:21:14.040Z,28.70
2019-03-16T20:24:06.740Z,28.70
2019-03-16T20:26:59.188Z,28.70
2019-03-16T20:29:51.871Z,28.70
2019-03-16T20:32:44.333Z,28.70
2019-03-16T20:35:36.486Z,28.70
2019-03-16T20:38:28.551Z,28.70
2019-03-16T20:41:20.932Z,28.70
2019-03-16T20:44:13.188Z,28.70
2019-03-16T20:47:05.533Z,28.70
2019-03-16T20:49:57.987Z,28.70
2019-03-16T20:52:50.339Z,28.70
2019-03-16T20:55:42.552Z,28.70
2019-03-16T20:58:35.210Z,28.70
2019-03-16T21:01:27.608Z,28.70
2019-03-16T21:04:20.222Z,28.70
2019-03-16T21:07:12.514Z,28.70
2019-03-16T21:10:05.625Z,28.70
2019-03-16T21:12:57.904Z,28.70
2019-03-16T21:15:50.781Z,28.70
2019-03-16T21:18:43.400Z,28.70
2019-03-16T21:21:35.526Z,28.70
2019-03-16T21:24:27.498Z,28.70
2019-03-16T21:27:19.874Z,28.70
2019-03-16T21:30:13.528Z,28.70
2019-03-16T21:33:05.442Z,28.70
2019-03-16T21:35:57.786Z,28.70
2019-03-16T21:38:50.203Z,28.70
2019-03-16T21:41:44.326Z,28.70
2019-03-16T21:44:35.992Z,28.70
2019-03-16T21:47:28.386Z,28.70
2019-03-16T21:50:20.443Z,28.70
2019-03-16T21:53:13.020Z,28.70
2019-03-16T21:56:05.927Z,28.70
2019-03-16T21:58:58.730Z,28.70
2019-03-16T22:01:51.221Z,28.70
2019-03-16T22:04:43.333Z,28.70
2019-03-16T22:07:35.976Z,28.70
2019-03-16T22:10:28.187Z,28.70
2019-03-16T22:13:20.376Z,28.70
2019-03-16T22:16:12.713Z,28.70
2019-03-16T22:19:04.797Z,28.70
2019-03-16T22:21:57.080Z,28.70
2019-03-16T22:24:49.966Z,28.70
2019-03-16T22:27:42.783Z,28.70
2019-03-16T22:30:34.747Z,28.70
2019-03-16T22:33:27.517Z,28.70
2019-03-16T22:36:19.791Z,28.70
2019-03-16T22:39:12.028Z,28.70
2019-03-16T22:42:04.635Z,28.70
2019-03-16T22:44:56.980Z,28.70
2019-03-16T22:47:49.121Z,28.70
2019-03-16T22:50:41.495Z,28.70
2019-03-16T22:53:34.423Z,28.70
2019-03-16T22:56:26.647Z,28.70
2019-03-16T22:59:19.020Z,28.70
2019-03-16T23:02:10.959Z,28.70
2019-03-16T23:05:03.921Z,28.70
2019-03-16T23:07:56.329Z,28.70
2019-03-16T23:10:48.684Z,28.70
2019-03-16T23:13:40.947Z,28.70
2019-03-16T23:16:33.888Z,28.70
2019-03-16T23:19:26.590Z,28.70
2019-03-16T23:22:19.062Z,28.70
2019-03-16T23:25:11.377Z,28.60
2019-03-16T23:28:03.614Z,28.60
2019-03-16T23:30:57.379Z,28.70
2019-03-16T23:33:49.608Z,28.60
2019-03-16T23:36:42.040Z,28.70
2019-03-16T23:39:34.215Z,28.60
2019-03-16T23:42:26.372Z,28.60
2019-03-16T23:45:18.660Z,28.70
2019-03-16T23:48:10.855Z,28.60
2019-03-16T23:51:03.043Z,28.60
2019-03-16T23:53:55.386Z,28.60
2019-03-16T23:56:47.876Z,28.60
2019-03-16T23:59:40.368Z,28.60
